createdAt,value
2023-01-30T00:05:04.476Z,3.12
2023-01-30T00:11:27.224Z,3.26
2023-01-30T00:17:47.171Z,3.34
2023-01-30T00:24:10.407Z,3.36
2023-01-30T00:30:30.256Z,3.36
2023-01-30T00:37:06.381Z,3.35
2023-01-30T00:43:13.222Z,3.35
2023-01-30T00:49:36.351Z,3.34
2023-01-30T00:55:56.163Z,3.38
2023-01-30T01:02:19.325Z,3.43
2023-01-30T01:08:39.205Z,3.48
2023-01-30T01:15:02.217Z,3.55
2023-01-30T01:21:22.236Z,3.6
2023-01-30T01:27:45.216Z,3.61
2023-01-30T01:34:05.181Z,3.61
2023-01-30T01:40:28.180Z,3.61
2023-01-30T01:46:48.184Z,3.6
2023-01-30T01:53:11.243Z,3.58
2023-01-30T01:59:31.198Z,3.57
2023-01-30T02:05:54.268Z,3.57
2023-01-30T02:12:14.275Z,3.57
2023-01-30T02:18:37.190Z,3.6
2023-01-30T02:24:57.154Z,3.64
2023-01-30T02:31:20.405Z,3.67
2023-01-30T02:37:40.183Z,3.69
2023-01-30T02:44:03.230Z,3.7
2023-01-30T02:50:23.240Z,3.7
2023-01-30T02:56:46.293Z,3.72
2023-01-30T03:03:06.238Z,3.75
2023-01-30T03:09:29.211Z,3.83
2023-01-30T03:15:49.202Z,3.93
2023-01-30T03:22:12.183Z,3.99
2023-01-30T03:28:32.181Z,4.03
2023-01-30T03:34:55.249Z,4.02
2023-01-30T03:41:15.202Z,4.03
2023-01-30T03:47:38.238Z,4.06
2023-01-30T03:53:58.207Z,4.08
2023-01-30T04:00:21.167Z,4.13
2023-01-30T04:06:41.227Z,4.26
2023-01-30T04:22:15.121Z,4.67
2023-01-30T04:28:35.162Z,5.03
2023-01-30T04:34:58.301Z,5.34
2023-01-30T04:41:18.178Z,5.55
2023-01-30T04:47:41.232Z,5.65
2023-01-30T04:54:01.163Z,5.73
2023-01-30T05:00:24.296Z,5.78
2023-01-30T05:06:44.267Z,5.83
2023-01-30T05:13:07.193Z,5.83
2023-01-30T05:19:27.262Z,5.79
2023-01-30T05:25:50.436Z,5.77
2023-01-30T05:32:10.183Z,5.75
2023-01-30T05:38:33.188Z,5.72
2023-01-30T05:44:53.163Z,5.68
2023-01-30T05:51:16.262Z,5.63
2023-01-30T05:57:36.243Z,5.57
2023-01-30T06:03:59.354Z,5.53
2023-01-30T06:10:19.182Z,5.5
2023-01-30T06:16:42.274Z,5.48
2023-01-30T06:23:02.313Z,5.47
2023-01-30T06:29:25.247Z,5.48
2023-01-30T06:35:45.306Z,5.55
2023-01-30T06:42:08.216Z,5.59
2023-01-30T06:48:28.203Z,5.65
2023-01-30T06:54:51.217Z,5.73
2023-01-30T07:01:11.224Z,5.77
2023-01-30T07:07:34.249Z,5.82
2023-01-30T07:13:54.249Z,5.9
2023-01-30T07:20:17.176Z,6.02
2023-01-30T07:26:37.293Z,6.15
2023-01-30T07:33:00.243Z,6.23
2023-01-30T07:39:20.195Z,6.26
2023-01-30T07:45:43.241Z,6.25
2023-01-30T07:52:03.221Z,6.21
2023-01-30T07:58:26.254Z,6.16
2023-01-30T08:04:46.335Z,6.12
2023-01-30T08:11:09.295Z,6.1
2023-01-30T08:17:29.162Z,6.1
2023-01-30T08:23:52.213Z,6.13
2023-01-30T08:30:12.322Z,6.11
2023-01-30T08:36:35.203Z,6.07
2023-01-30T08:42:55.202Z,6.11
2023-01-30T08:49:18.263Z,6.17
2023-01-30T08:55:38.195Z,6.24
2023-01-30T09:02:01.232Z,6.31
2023-01-30T09:08:21.238Z,6.39
2023-01-30T09:32:21.091Z,6.98
2023-01-30T09:38:44.161Z,7.12
2023-01-30T09:45:04.213Z,7.32
2023-01-30T09:51:27.208Z,7.55
2023-01-30T09:57:47.208Z,7.76
2023-01-30T10:04:10.303Z,7.94
2023-01-30T10:10:30.215Z,7.99
2023-01-30T10:16:53.196Z,8.06
2023-01-30T10:23:13.187Z,8.05
2023-01-30T10:29:36.244Z,8.02
2023-01-30T10:35:56.194Z,8.01
2023-01-30T10:42:19.424Z,8.04
2023-01-30T10:48:43.252Z,8.1
2023-01-30T10:55:02.176Z,8.12
2023-01-30T11:01:22.214Z,8.13
2023-01-30T11:07:45.250Z,8.14
2023-01-30T11:14:05.230Z,8.13
2023-01-30T11:20:28.241Z,8.14
2023-01-30T11:26:48.711Z,8.15
2023-01-30T11:33:11.306Z,8.16
2023-01-30T11:39:31.247Z,8.08
2023-01-30T11:45:54.317Z,8.04
2023-01-30T11:52:14.342Z,7.98
2023-01-30T11:58:37.176Z,7.92
2023-01-30T12:04:57.255Z,7.89
2023-01-30T12:11:20.170Z,7.87
2023-01-30T12:17:40.207Z,7.93
2023-01-30T12:24:04.235Z,7.95
2023-01-30T12:30:24.172Z,7.95
2023-01-30T12:36:45.251Z,7.93
2023-01-30T12:43:05.197Z,7.92
2023-01-30T12:49:28.444Z,7.93
2023-01-30T12:55:48.159Z,7.9
2023-01-30T13:02:11.181Z,7.84
2023-01-30T13:08:31.277Z,7.82
2023-01-30T13:14:54.216Z,7.8
2023-01-30T13:21:14.303Z,7.79
2023-01-30T13:27:37.203Z,7.86
2023-01-30T13:33:57.188Z,8.05
2023-01-30T13:40:20.713Z,8.11
2023-01-30T13:46:40.252Z,8
2023-01-30T13:53:03.181Z,7.91
2023-01-30T13:59:23.380Z,7.86
2023-01-30T14:05:48.397Z,7.85
2023-01-30T14:12:06.333Z,7.86
2023-01-30T14:35:12.220Z,7.93
2023-01-30T14:41:35.160Z,8.02
2023-01-30T14:47:55.209Z,8.02
2023-01-30T14:54:18.231Z,8.01
2023-01-30T15:00:38.326Z,7.98
2023-01-30T15:07:01.185Z,7.98
2023-01-30T15:13:21.217Z,8.05
2023-01-30T15:19:44.247Z,8.09
2023-01-30T15:26:04.179Z,8.07
2023-01-30T15:32:27.403Z,8.01
2023-01-30T15:38:47.204Z,7.93
2023-01-30T15:45:10.209Z,7.86
2023-01-30T15:51:30.292Z,7.81
2023-01-30T15:57:53.226Z,7.75
2023-01-30T16:04:13.218Z,7.69
2023-01-30T16:10:36.195Z,7.6
2023-01-30T16:16:56.218Z,7.54
2023-01-30T16:23:19.210Z,7.52
2023-01-30T16:29:39.276Z,7.48
2023-01-30T16:36:02.212Z,7.46
2023-01-30T16:42:22.209Z,7.4
2023-01-30T16:48:45.259Z,7.33
2023-01-30T16:55:05.192Z,7.28
2023-01-30T17:01:28.295Z,7.25
2023-01-30T17:07:48.258Z,7.19
2023-01-30T17:14:11.227Z,7.14
2023-01-30T17:20:31.178Z,7.1
2023-01-30T17:26:54.286Z,7.09
2023-01-30T17:33:14.239Z,7.09
2023-01-30T17:39:37.231Z,7.07
2023-01-30T17:45:57.737Z,7.03
2023-01-30T17:52:20.228Z,7.02
2023-01-30T17:58:40.207Z,7
2023-01-30T18:05:03.211Z,6.98
2023-01-30T18:11:23.518Z,6.98
2023-01-30T18:17:47.393Z,6.98
2023-01-30T18:24:06.234Z,6.96
2023-01-30T18:30:29.237Z,6.93
2023-01-30T18:36:49.154Z,6.92
2023-01-30T18:43:12.292Z,6.9
2023-01-30T18:49:32.238Z,6.88
2023-01-30T18:55:55.175Z,6.85
2023-01-30T19:02:15.292Z,6.79
2023-01-30T19:08:38.190Z,6.74
2023-01-30T19:14:58.195Z,6.71
2023-01-30T19:21:21.284Z,6.65
2023-01-30T19:38:34.111Z,6.56
2023-01-30T19:44:57.169Z,6.55
2023-01-30T19:51:17.175Z,6.55
2023-01-30T19:57:40.191Z,6.54
2023-01-30T20:04:00.206Z,6.52
2023-01-30T20:10:23.270Z,6.49
2023-01-30T20:16:43.201Z,6.45
2023-01-30T20:23:06.176Z,6.41
2023-01-30T20:29:26.200Z,6.39
2023-01-30T20:35:49.242Z,6.32
2023-01-30T20:42:09.219Z,6.28
2023-01-30T20:48:32.207Z,6.27
2023-01-30T20:54:52.221Z,6.27
2023-01-30T21:01:17.581Z,6.3
2023-01-30T21:07:35.176Z,6.31
2023-01-30T21:13:58.255Z,6.31
2023-01-30T21:20:18.188Z,6.32
2023-01-30T21:26:41.241Z,6.32
2023-01-30T21:33:01.237Z,6.3
2023-01-30T21:39:24.187Z,6.29
2023-01-30T21:45:44.318Z,6.2
2023-01-30T21:52:07.228Z,6.06
2023-01-30T21:58:27.183Z,5.94
2023-01-30T22:04:50.348Z,5.83
2023-01-30T22:11:10.196Z,5.8
2023-01-30T22:17:33.220Z,5.77
2023-01-30T22:23:53.352Z,5.78
2023-01-30T22:30:16.210Z,5.78
2023-01-30T22:36:36.210Z,5.75
2023-01-30T22:42:59.236Z,5.7
2023-01-30T22:49:19.259Z,5.67
2023-01-30T22:55:42.218Z,5.65
2023-01-30T23:19:56.175Z,5.61
2023-01-30T23:26:16.171Z,5.6
2023-01-30T23:32:39.179Z,5.59
2023-01-30T23:38:59.264Z,5.57
2023-01-30T23:45:22.218Z,5.54
2023-01-30T23:51:42.206Z,5.54
2023-01-30T23:58:05.181Z,5.52
